createdAt,value
2018-02-19T00:00:01.434Z,977.31
2018-02-19T00:00:11.519Z,977.31
2018-02-19T00:00:21.597Z,977.29
2018-02-19T00:00:31.697Z,977.29
2018-02-19T00:00:41.737Z,977.31
2018-02-19T00:00:51.828Z,977.31
2018-02-19T00:01:01.925Z,977.29
2018-02-19T00:01:12.024Z,977.29
2018-02-19T00:01:22.099Z,977.29
2018-02-19T00:01:32.193Z,977.29
2018-02-19T00:01:42.143Z,977.29
2018-02-19T00:01:52.333Z,977.29
2018-02-19T00:02:02.417Z,977.31
2018-02-19T00:02:12.498Z,977.31
2018-02-19T00:02:22.595Z,977.31
2018-02-19T00:02:32.674Z,977.31
2018-02-19T00:02:42.736Z,977.31
2018-02-19T00:02:52.840Z,977.29
2018-02-19T00:03:02.931Z,977.29
2018-02-19T00:03:13.026Z,977.29
2018-02-19T00:03:23.096Z,977.29
2018-02-19T00:03:33.182Z,977.31
2018-02-19T00:03:43.281Z,977.29
2018-02-19T00:03:53.371Z,977.29
2018-02-19T00:04:03.414Z,977.29
2018-02-19T00:04:13.507Z,977.29
2018-02-19T00:04:23.820Z,977.27
2018-02-19T00:04:33.687Z,977.31
2018-02-19T00:04:43.755Z,977.29
2018-02-19T00:04:53.841Z,977.29
2018-02-19T00:05:03.937Z,977.29
2018-02-19T00:05:14.038Z,977.27
2018-02-19T00:05:24.091Z,977.29
2018-02-19T00:05:34.179Z,977.27
2018-02-19T00:05:44.269Z,977.29
2018-02-19T00:05:54.364Z,977.29
2018-02-19T00:06:04.466Z,977.27
2018-02-19T00:06:14.541Z,977.25
2018-02-19T00:06:24.581Z,977.27
2018-02-19T00:06:34.671Z,977.27
2018-02-19T00:06:44.757Z,977.27
2018-02-19T00:06:54.739Z,977.29
2018-02-19T00:07:04.948Z,977.27
2018-02-19T00:07:15.041Z,977.27
2018-02-19T00:07:25.133Z,977.25
2018-02-19T00:07:35.224Z,977.27
2018-02-19T00:07:45.308Z,977.25
2018-02-19T00:07:55.398Z,977.25
2018-02-19T00:08:05.451Z,977.27
2018-02-19T00:08:15.544Z,977.27
2018-02-19T00:08:25.637Z,977.25
2018-02-19T00:08:35.735Z,977.27
2018-02-19T00:08:45.809Z,977.27
2018-02-19T00:08:55.912Z,977.27
2018-02-19T00:09:05.986Z,977.25
2018-02-19T00:09:16.048Z,977.23
2018-02-19T00:09:26.135Z,977.25
2018-02-19T00:09:36.223Z,977.23
2018-02-19T00:09:46.309Z,977.25
2018-02-19T00:09:56.389Z,977.23
2018-02-19T00:10:06.481Z,977.23
2018-02-19T00:10:16.571Z,977.23
2018-02-19T00:10:26.633Z,977.23
2018-02-19T00:10:36.724Z,977.21
2018-02-19T00:10:46.818Z,977.23
2018-02-19T00:10:56.903Z,977.21
2018-02-19T00:11:07.004Z,977.21
2018-02-19T00:11:17.084Z,977.21
2018-02-19T00:11:27.031Z,977.21
2018-02-19T00:11:37.239Z,977.23
2018-02-19T00:11:47.317Z,977.21
2018-02-19T00:11:57.410Z,977.21
2018-02-19T00:12:07.500Z,977.21
2018-02-19T00:12:17.584Z,977.21
2018-02-19T00:12:27.682Z,977.21
2018-02-19T00:12:37.763Z,977.21
2018-02-19T00:12:47.846Z,977.21
2018-02-19T00:12:57.923Z,977.21
2018-02-19T00:13:07.979Z,977.19
2018-02-19T00:13:18.078Z,977.21
2018-02-19T00:13:28.163Z,977.21
2018-02-19T00:13:38.247Z,977.21
2018-02-19T00:13:48.177Z,977.19
2018-02-19T00:13:58.450Z,977.19
2018-02-19T00:14:08.480Z,977.19
2018-02-19T00:14:18.582Z,977.19
2018-02-19T00:14:28.683Z,977.21
2018-02-19T00:14:38.766Z,977.21
2018-02-19T00:14:48.848Z,977.21
2018-02-19T00:14:58.942Z,977.21
2018-02-19T00:15:09.024Z,977.21
2018-02-19T00:15:19.106Z,977.21
2018-02-19T00:15:29.180Z,977.19
2018-02-19T00:15:39.242Z,977.21
2018-02-19T00:15:49.332Z,977.19
2018-02-19T00:15:59.431Z,977.19
2018-02-19T00:16:09.531Z,977.17
2018-02-19T00:16:19.507Z,977.19
2018-02-19T00:16:29.709Z,977.19
2018-02-19T00:16:39.794Z,977.19
2018-02-19T00:16:49.850Z,977.17
2018-02-19T00:16:59.945Z,977.17
2018-02-19T00:17:10.037Z,977.15
2018-02-19T00:17:20.133Z,977.17
2018-02-19T00:17:30.220Z,977.17
2018-02-19T00:17:40.311Z,977.17
2018-02-19T00:17:50.393Z,977.17
2018-02-19T00:18:00.464Z,977.17
2018-02-19T00:18:10.559Z,977.15
2018-02-19T00:18:20.652Z,977.15
2018-02-19T00:18:30.732Z,977.17
2018-02-19T00:18:40.813Z,977.17
2018-02-19T00:18:50.912Z,977.15
2018-02-19T00:19:01.113Z,977.15
2018-02-19T00:19:11.057Z,977.15
2018-02-19T00:19:21.137Z,977.15
2018-02-19T00:19:31.227Z,977.13
2018-02-19T00:19:41.305Z,977.13
2018-02-19T00:19:51.392Z,977.15
2018-02-19T00:20:01.468Z,977.17
2018-02-19T00:20:11.568Z,977.11
2018-02-19T00:20:21.619Z,977.11
2018-02-19T00:20:31.712Z,977.13
2018-02-19T00:20:41.808Z,977.11
2018-02-19T00:20:51.889Z,977.11
2018-02-19T00:21:01.983Z,977.15
2018-02-19T00:21:12.085Z,977.13
2018-02-19T00:21:22.165Z,977.11
2018-02-19T00:21:32.258Z,977.13
2018-02-19T00:21:42.340Z,977.11
2018-02-19T00:21:52.393Z,977.11
2018-02-19T00:22:02.484Z,977.11
2018-02-19T00:22:12.573Z,977.11
2018-02-19T00:22:22.679Z,977.1
2018-02-19T00:22:32.760Z,977.1
2018-02-19T00:22:42.842Z,977.1
2018-02-19T00:22:52.922Z,977.1
2018-02-19T00:23:03.005Z,977.1
2018-02-19T00:23:13.085Z,977.1
2018-02-19T00:23:23.141Z,977.1
2018-02-19T00:23:33.231Z,977.08
2018-02-19T00:23:43.333Z,977.1
2018-02-19T00:23:53.415Z,977.1
2018-02-19T00:24:03.507Z,977.11
2018-02-19T00:24:13.578Z,977.11
2018-02-19T00:24:23.676Z,977.08
2018-02-19T00:24:33.758Z,977.1
2018-02-19T00:24:43.813Z,977.1
2018-02-19T00:24:53.904Z,977.08
2018-02-19T00:25:03.996Z,977.11
2018-02-19T00:25:14.085Z,977.1
2018-02-19T00:25:24.171Z,977.08
2018-02-19T00:25:34.263Z,977.11
2018-02-19T00:25:44.347Z,977.08
2018-02-19T00:25:54.439Z,977.1
2018-02-19T00:26:04.531Z,977.08
2018-02-19T00:26:14.599Z,977.08
2018-02-19T00:26:24.655Z,977.08
2018-02-19T00:26:34.746Z,977.08
2018-02-19T00:26:44.819Z,977.1
2018-02-19T00:26:54.904Z,977.06
2018-02-19T00:27:04.844Z,977.08
2018-02-19T00:27:15.072Z,977.1
2018-02-19T00:27:25.165Z,977.08
2018-02-19T00:27:35.217Z,977.06
2018-02-19T00:27:45.320Z,977.06
2018-02-19T00:27:55.405Z,977.08
2018-02-19T00:28:05.494Z,977.06
2018-02-19T00:28:15.597Z,977.06
2018-02-19T00:28:25.668Z,977.08
2018-02-19T00:28:35.722Z,977.06
2018-02-19T00:28:45.801Z,977.06
2018-02-19T00:28:55.904Z,977.04
2018-02-19T00:29:06.026Z,977.04
2018-02-19T00:29:16.068Z,977.02
2018-02-19T00:29:26.011Z,977.02
2018-02-19T00:29:36.252Z,977.04
2018-02-19T00:29:46.345Z,977.06
2018-02-19T00:29:56.386Z,977.06
2018-02-19T00:30:06.489Z,977.02
2018-02-19T00:30:16.460Z,977.04
2018-02-19T00:30:26.672Z,977.04
2018-02-19T00:30:36.767Z,977
2018-02-19T00:30:46.859Z,977
2018-02-19T00:30:56.945Z,977
2018-02-19T00:31:07.044Z,977
2018-02-19T00:31:17.116Z,977
2018-02-19T00:31:27.207Z,977
2018-02-19T00:31:37.142Z,977.02
2018-02-19T00:31:47.334Z,976.98
2018-02-19T00:31:57.416Z,977
2018-02-19T00:32:07.542Z,977
2018-02-19T00:32:17.602Z,977.02
2018-02-19T00:32:27.698Z,977.02
2018-02-19T00:32:37.773Z,977.02
2018-02-19T00:32:47.873Z,977
2018-02-19T00:32:57.948Z,976.98
2018-02-19T00:33:08.009Z,977.02
2018-02-19T00:33:18.095Z,976.98
2018-02-19T00:33:28.168Z,977
2018-02-19T00:33:38.230Z,977
2018-02-19T00:33:48.322Z,976.98
2018-02-19T00:33:58.412Z,976.98
2018-02-19T00:34:08.517Z,977
2018-02-19T00:34:18.586Z,977
2018-02-19T00:34:28.668Z,977
2018-02-19T00:34:38.748Z,977
2018-02-19T00:34:48.828Z,977.02
2018-02-19T00:34:58.885Z,977
2018-02-19T00:35:08.984Z,977
2018-02-19T00:35:19.070Z,976.98
2018-02-19T00:35:29.053Z,976.98
2018-02-19T00:35:39.240Z,977
2018-02-19T00:35:49.333Z,977
2018-02-19T00:35:59.406Z,977.02
2018-02-19T00:36:09.523Z,976.96
2018-02-19T00:36:19.561Z,976.98
2018-02-19T00:36:29.646Z,976.98
2018-02-19T00:36:39.736Z,976.98
2018-02-19T00:36:49.827Z,977.02
2018-02-19T00:36:59.929Z,976.98
2018-02-19T00:37:10.003Z,977.02
2018-02-19T00:37:20.074Z,976.98
2018-02-19T00:37:30.170Z,976.98
2018-02-19T00:37:40.229Z,976.98
2018-02-19T00:37:50.310Z,976.96
2018-02-19T00:38:00.410Z,976.98
2018-02-19T00:38:10.506Z,977
2018-02-19T00:38:20.477Z,976.98
2018-02-19T00:38:30.660Z,976.98
2018-02-19T00:38:40.609Z,977.02
2018-02-19T00:38:50.803Z,976.98
2018-02-19T00:39:00.890Z,977
2018-02-19T00:39:10.986Z,977
2018-02-19T00:39:21.069Z,976.98
2018-02-19T00:39:31.140Z,977.02
2018-02-19T00:39:41.201Z,977.02
2018-02-19T00:39:51.294Z,976.98
2018-02-19T00:40:01.394Z,976.98
2018-02-19T00:40:11.486Z,976.98
2018-02-19T00:40:21.573Z,976.96
2018-02-19T00:40:31.655Z,977
2018-02-19T00:40:41.746Z,977.02
2018-02-19T00:40:51.787Z,976.98
2018-02-19T00:41:01.770Z,977
2018-02-19T00:41:11.984Z,976.98
2018-02-19T00:41:22.056Z,976.98
2018-02-19T00:41:32.159Z,976.98
2018-02-19T00:41:42.231Z,977.02
2018-02-19T00:41:52.343Z,976.98
2018-02-19T00:42:02.413Z,976.96
2018-02-19T00:42:12.497Z,976.98
2018-02-19T00:42:22.546Z,977.02
2018-02-19T00:42:32.645Z,976.98
2018-02-19T00:42:42.746Z,976.96
2018-02-19T00:42:52.831Z,976.96
2018-02-19T00:43:02.763Z,976.98
2018-02-19T00:43:12.991Z,976.98
2018-02-19T00:43:23.094Z,976.98
2018-02-19T00:43:33.146Z,976.98
2018-02-19T00:43:43.239Z,976.98
2018-02-19T00:43:53.332Z,976.98
2018-02-19T00:44:03.402Z,976.98
2018-02-19T00:44:13.514Z,976.96
2018-02-19T00:44:23.568Z,976.96
2018-02-19T00:44:33.638Z,976.96
2018-02-19T00:44:43.730Z,976.96
2018-02-19T00:44:53.831Z,976.98
2018-02-19T00:45:03.919Z,976.96
2018-02-19T00:45:13.999Z,976.96
2018-02-19T00:45:24.106Z,976.96
2018-02-19T00:45:34.174Z,976.96
2018-02-19T00:45:44.264Z,976.96
2018-02-19T00:45:54.362Z,976.96
2018-02-19T00:46:04.459Z,976.96
2018-02-19T00:46:14.512Z,976.94
2018-02-19T00:46:24.610Z,976.94
2018-02-19T00:46:34.699Z,976.94
2018-02-19T00:46:44.798Z,976.92
2018-02-19T00:46:54.869Z,976.96
2018-02-19T00:47:04.963Z,976.92
2018-02-19T00:47:15.067Z,976.92
2018-02-19T00:47:25.146Z,976.92
2018-02-19T00:47:35.193Z,976.92
2018-02-19T00:47:45.284Z,976.92
2018-02-19T00:47:55.385Z,976.94
2018-02-19T00:48:05.482Z,976.92
2018-02-19T00:48:15.576Z,976.92
2018-02-19T00:48:25.503Z,976.92
2018-02-19T00:48:35.753Z,976.92
2018-02-19T00:48:45.821Z,976.92
2018-02-19T00:48:55.883Z,976.9
2018-02-19T00:49:05.971Z,976.9
2018-02-19T00:49:16.059Z,976.9
2018-02-19T00:49:26.148Z,976.88
2018-02-19T00:49:36.228Z,976.88
2018-02-19T00:49:46.333Z,976.8
2018-02-19T00:49:56.421Z,976.88
2018-02-19T00:50:06.495Z,976.78
2018-02-19T00:50:16.550Z,976.8
2018-02-19T00:50:26.637Z,976.78
2018-02-19T00:50:36.727Z,976.78
2018-02-19T00:50:46.807Z,976.78
2018-02-19T00:50:56.910Z,976.78
2018-02-19T00:51:07.009Z,976.76
2018-02-19T00:51:17.083Z,976.78
2018-02-19T00:51:27.165Z,976.74
2018-02-19T00:51:37.234Z,976.74
2018-02-19T00:51:47.319Z,976.72
2018-02-19T00:51:57.401Z,976.72
2018-02-19T00:52:07.494Z,976.74
2018-02-19T00:52:17.584Z,976.74
2018-02-19T00:52:27.656Z,976.7
2018-02-19T00:52:37.746Z,976.7
2018-02-19T00:52:47.809Z,976.7
2018-02-19T00:52:57.892Z,976.7
2018-02-19T00:53:08.000Z,976.68
2018-02-19T00:53:18.085Z,976.7
2018-02-19T00:53:28.171Z,976.72
2018-02-19T00:53:38.267Z,976.68
2018-02-19T00:53:48.334Z,976.68
2018-02-19T00:53:58.391Z,976.68
2018-02-19T00:54:08.493Z,976.66
2018-02-19T00:54:18.589Z,976.68
2018-02-19T00:54:28.659Z,976.66
2018-02-19T00:54:38.754Z,976.66
2018-02-19T00:54:48.838Z,976.68
2018-02-19T00:54:58.878Z,976.66
2018-02-19T00:55:08.969Z,976.68
2018-02-19T00:55:19.055Z,976.68
2018-02-19T00:55:29.146Z,976.66
2018-02-19T00:55:39.245Z,976.68
2018-02-19T00:55:49.320Z,976.68
2018-02-19T00:55:59.411Z,976.68
2018-02-19T00:56:09.511Z,976.68
2018-02-19T00:56:19.585Z,976.68
2018-02-19T00:56:29.637Z,976.68
2018-02-19T00:56:39.739Z,976.68
2018-02-19T00:56:49.820Z,976.66
2018-02-19T00:56:59.916Z,976.66
2018-02-19T00:57:09.999Z,976.66
2018-02-19T00:57:20.078Z,976.66
2018-02-19T00:57:30.147Z,976.66
2018-02-19T00:57:40.222Z,976.66
2018-02-19T00:57:50.313Z,976.66
2018-02-19T00:58:00.281Z,976.64
2018-02-19T00:58:10.472Z,976.64
2018-02-19T00:58:20.577Z,976.66
2018-02-19T00:58:30.642Z,976.64
2018-02-19T00:58:40.708Z,976.66
2018-02-19T00:58:50.794Z,976.66
2018-02-19T00:59:00.887Z,976.66
2018-02-19T00:59:10.975Z,976.64
2018-02-19T00:59:20.964Z,976.66
2018-02-19T00:59:31.100Z,976.64
2018-02-19T00:59:41.200Z,976.64
2018-02-19T00:59:51.275Z,976.64
2018-02-19T01:00:01.368Z,976.64
2018-02-19T01:00:11.472Z,976.66
2018-02-19T01:00:21.554Z,976.64
2018-02-19T01:00:31.628Z,976.64
2018-02-19T01:00:41.740Z,976.62
2018-02-19T01:00:51.820Z,976.64
2018-02-19T01:01:01.892Z,976.64
2018-02-19T01:01:11.999Z,976.64
2018-02-19T01:01:22.043Z,976.62
2018-02-19T01:01:32.138Z,976.62
2018-02-19T01:01:42.217Z,976.62
2018-02-19T01:01:52.322Z,976.64
2018-02-19T01:02:02.402Z,976.62
2018-02-19T01:02:12.477Z,976.62
2018-02-19T01:02:22.581Z,976.6
2018-02-19T01:02:32.627Z,976.64
2018-02-19T01:02:42.717Z,976.64
2018-02-19T01:02:52.816Z,976.64
2018-02-19T01:03:02.895Z,976.62
2018-02-19T01:03:12.989Z,976.62
2018-02-19T01:03:23.078Z,976.62
2018-02-19T01:03:33.156Z,976.62
2018-02-19T01:03:43.248Z,976.64
2018-02-19T01:03:53.337Z,976.62
2018-02-19T01:04:03.387Z,976.62
2018-02-19T01:04:13.475Z,976.6
2018-02-19T01:04:23.788Z,976.6
2018-02-19T01:04:33.640Z,976.62
2018-02-19T01:04:43.728Z,976.6
2018-02-19T01:04:53.780Z,976.6
2018-02-19T01:05:03.872Z,976.6
2018-02-19T01:05:13.969Z,976.58
2018-02-19T01:05:24.054Z,976.6
2018-02-19T01:05:34.142Z,976.6
2018-02-19T01:05:44.239Z,976.58
2018-02-19T01:05:54.336Z,976.58
2018-02-19T01:06:04.436Z,976.58
2018-02-19T01:06:14.479Z,976.6
2018-02-19T01:06:24.578Z,976.6
2018-02-19T01:06:34.653Z,976.6
2018-02-19T01:06:44.731Z,976.62
2018-02-19T01:06:54.814Z,976.58
2018-02-19T01:07:04.905Z,976.6
2018-02-19T01:07:14.986Z,976.62
2018-02-19T01:07:25.037Z,976.6
2018-02-19T01:07:35.132Z,976.62
2018-02-19T01:07:45.215Z,976.62
2018-02-19T01:07:55.318Z,976.62
2018-02-19T01:08:05.409Z,976.6
2018-02-19T01:08:15.497Z,976.6
2018-02-19T01:08:25.592Z,976.6
2018-02-19T01:08:35.631Z,976.6
2018-02-19T01:08:45.705Z,976.6
2018-02-19T01:08:55.817Z,976.6
2018-02-19T01:09:05.900Z,976.58
2018-02-19T01:09:15.984Z,976.64
2018-02-19T01:09:26.113Z,976.62
2018-02-19T01:09:36.127Z,976.62
2018-02-19T01:09:46.239Z,976.62
2018-02-19T01:09:56.240Z,976.62
2018-02-19T01:10:06.412Z,976.6
2018-02-19T01:10:16.407Z,976.62
2018-02-19T01:10:26.615Z,976.62
2018-02-19T01:10:36.707Z,976.6
2018-02-19T01:10:46.665Z,976.58
2018-02-19T01:10:56.857Z,976.56
2018-02-19T01:11:06.881Z,976.58
2018-02-19T01:11:17.037Z,976.58
2018-02-19T01:11:27.100Z,976.58
2018-02-19T01:11:37.079Z,976.6
2018-02-19T01:11:47.304Z,976.6
2018-02-19T01:11:57.351Z,976.58
2018-02-19T01:12:07.434Z,976.58
2018-02-19T01:12:17.533Z,976.58
2018-02-19T01:12:27.625Z,976.6
2018-02-19T01:12:37.702Z,976.56
2018-02-19T01:12:47.755Z,976.58
2018-02-19T01:12:57.837Z,976.58
2018-02-19T01:13:07.940Z,976.58
2018-02-19T01:13:18.009Z,976.58
2018-02-19T01:13:28.086Z,976.56
2018-02-19T01:13:38.148Z,976.6
2018-02-19T01:13:48.239Z,976.58
2018-02-19T01:13:58.315Z,976.58
2018-02-19T01:14:08.407Z,976.58
2018-02-19T01:14:18.504Z,976.58
2018-02-19T01:14:28.618Z,976.56
2018-02-19T01:14:38.626Z,976.58
2018-02-19T01:14:48.723Z,976.54
2018-02-19T01:14:58.816Z,976.54
2018-02-19T01:15:08.894Z,976.56
2018-02-19T01:15:18.997Z,976.56
2018-02-19T01:15:29.085Z,976.56
2018-02-19T01:15:39.155Z,976.56
2018-02-19T01:15:49.205Z,976.56
2018-02-19T01:15:59.308Z,976.56
2018-02-19T01:16:09.406Z,976.56
2018-02-19T01:16:19.500Z,976.56
2018-02-19T01:16:29.578Z,976.56
2018-02-19T01:16:39.661Z,976.54
2018-02-19T01:16:49.756Z,976.54
2018-02-19T01:16:59.829Z,976.56
2018-02-19T01:17:09.881Z,976.56
2018-02-19T01:17:19.970Z,976.52
2018-02-19T01:17:30.056Z,976.54
2018-02-19T01:17:40.130Z,976.56
2018-02-19T01:17:50.179Z,976.54
2018-02-19T01:18:00.162Z,976.52
2018-02-19T01:18:10.359Z,976.54
2018-02-19T01:18:20.451Z,976.54
2018-02-19T01:18:30.531Z,976.56
2018-02-19T01:18:40.613Z,976.52
2018-02-19T01:18:50.653Z,976.54
2018-02-19T01:19:00.754Z,976.52
2018-02-19T01:19:10.838Z,976.56
2018-02-19T01:19:20.933Z,976.56
2018-02-19T01:19:31.023Z,976.52
2018-02-19T01:19:41.104Z,976.52
2018-02-19T01:19:51.156Z,976.52
2018-02-19T01:20:01.250Z,976.52
2018-02-19T01:20:11.354Z,976.52
2018-02-19T01:20:21.426Z,976.54
2018-02-19T01:20:31.516Z,976.52
2018-02-19T01:20:41.460Z,976.54
2018-02-19T01:20:51.662Z,976.52
2018-02-19T01:21:01.746Z,976.54
2018-02-19T01:21:11.877Z,976.52
2018-02-19T01:21:21.931Z,976.5
2018-02-19T01:21:32.032Z,976.54
2018-02-19T01:21:42.131Z,976.5
2018-02-19T01:21:52.229Z,976.5
2018-02-19T01:22:02.320Z,976.54
2018-02-19T01:22:12.392Z,976.5
2018-02-19T01:22:22.483Z,976.52
2018-02-19T01:22:32.556Z,976.54
2018-02-19T01:22:42.605Z,976.5
2018-02-19T01:22:52.697Z,976.52
2018-02-19T01:23:02.788Z,976.52
2018-02-19T01:23:12.912Z,976.52
2018-02-19T01:23:23.022Z,976.54
2018-02-19T01:23:33.112Z,976.5
2018-02-19T01:23:43.030Z,976.48
2018-02-19T01:23:53.177Z,976.5
2018-02-19T01:24:03.383Z,976.48
2018-02-19T01:24:13.411Z,976.52
2018-02-19T01:24:23.486Z,976.5
2018-02-19T01:24:33.538Z,976.52
2018-02-19T01:24:43.621Z,976.5
2018-02-19T01:24:53.695Z,976.5
2018-02-19T01:25:03.796Z,976.52
2018-02-19T01:25:13.876Z,976.5
2018-02-19T01:25:23.941Z,976.48
2018-02-19T01:25:34.025Z,976.5
2018-02-19T01:25:44.107Z,976.48
2018-02-19T01:25:54.209Z,976.48
2018-02-19T01:26:04.319Z,976.48
2018-02-19T01:26:14.386Z,976.48
2018-02-19T01:26:24.476Z,976.52
2018-02-19T01:26:34.549Z,976.48
2018-02-19T01:26:44.638Z,976.5
2018-02-19T01:26:54.722Z,976.48
2018-02-19T01:27:04.696Z,976.48
2018-02-19T01:27:14.850Z,976.46
2018-02-19T01:27:24.939Z,976.5
2018-02-19T01:27:35.032Z,976.46
2018-02-19T01:27:45.006Z,976.48
2018-02-19T01:27:55.216Z,976.46
2018-02-19T01:28:05.299Z,976.5
2018-02-19T01:28:15.374Z,976.48
2018-02-19T01:28:25.446Z,976.48
2018-02-19T01:28:35.536Z,976.48
2018-02-19T01:28:45.630Z,976.5
2018-02-19T01:28:55.717Z,976.5
2018-02-19T01:29:05.806Z,976.5
2018-02-19T01:29:15.882Z,976.5
2018-02-19T01:29:25.974Z,976.5
2018-02-19T01:29:36.097Z,976.48
2018-02-19T01:29:46.108Z,976.48
2018-02-19T01:29:56.204Z,976.48
2018-02-19T01:30:06.320Z,976.48
2018-02-19T01:30:16.386Z,976.5
2018-02-19T01:30:26.317Z,976.5
2018-02-19T01:30:36.549Z,976.5
2018-02-19T01:30:46.606Z,976.5
2018-02-19T01:30:56.689Z,976.48
2018-02-19T01:31:06.789Z,976.48
2018-02-19T01:31:16.877Z,976.46
2018-02-19T01:31:26.956Z,976.5
2018-02-19T01:31:37.046Z,976.5
2018-02-19T01:31:47.125Z,976.48
2018-02-19T01:31:57.182Z,976.46
2018-02-19T01:32:07.280Z,976.46
2018-02-19T01:32:17.354Z,976.46
2018-02-19T01:32:27.431Z,976.46
2018-02-19T01:32:37.522Z,976.46
2018-02-19T01:32:47.575Z,976.46
2018-02-19T01:32:57.669Z,976.46
2018-02-19T01:33:07.768Z,976.44
2018-02-19T01:33:17.846Z,976.44
2018-02-19T01:33:27.925Z,976.44
2018-02-19T01:33:38.020Z,976.44
2018-02-19T01:33:48.057Z,976.44
2018-02-19T01:33:58.160Z,976.44
2018-02-19T01:34:08.244Z,976.42
2018-02-19T01:34:18.328Z,976.42
2018-02-19T01:34:28.421Z,976.42
2018-02-19T01:34:38.525Z,976.42
2018-02-19T01:34:48.564Z,976.41
2018-02-19T01:34:58.660Z,976.42
2018-02-19T01:35:08.756Z,976.42
2018-02-19T01:35:18.841Z,976.41
2018-02-19T01:35:28.945Z,976.41
2018-02-19T01:35:39.006Z,976.41
2018-02-19T01:35:49.085Z,976.41
2018-02-19T01:35:59.177Z,976.41
2018-02-19T01:36:09.282Z,976.41
2018-02-19T01:36:19.387Z,976.39
2018-02-19T01:36:29.476Z,976.41
2018-02-19T01:36:39.550Z,976.41
2018-02-19T01:36:49.631Z,976.41
2018-02-19T01:36:59.684Z,976.39
2018-02-19T01:37:09.782Z,976.39
2018-02-19T01:37:19.868Z,976.41
2018-02-19T01:37:29.940Z,976.39
2018-02-19T01:37:40.033Z,976.41
2018-02-19T01:37:50.120Z,976.39
2018-02-19T01:38:00.204Z,976.37
2018-02-19T01:38:10.264Z,976.42
2018-02-19T01:38:20.360Z,976.39
2018-02-19T01:38:30.439Z,976.39
2018-02-19T01:38:40.535Z,976.37
2018-02-19T01:38:50.612Z,976.37
2018-02-19T01:39:00.705Z,976.39
2018-02-19T01:39:10.792Z,976.37
2018-02-19T01:39:20.878Z,976.39
2018-02-19T01:39:30.931Z,976.37
2018-02-19T01:39:41.035Z,976.37
2018-02-19T01:39:51.104Z,976.37
2018-02-19T01:40:01.207Z,976.37
2018-02-19T01:40:11.271Z,976.37
2018-02-19T01:40:21.378Z,976.37
2018-02-19T01:40:31.450Z,976.37
2018-02-19T01:40:41.512Z,976.37
2018-02-19T01:40:51.605Z,976.39
2018-02-19T01:41:01.696Z,976.37
2018-02-19T01:41:11.799Z,976.39
2018-02-19T01:41:21.877Z,976.37
2018-02-19T01:41:31.964Z,976.37
2018-02-19T01:41:41.886Z,976.37
2018-02-19T01:41:52.128Z,976.37
2018-02-19T01:42:02.184Z,976.37
2018-02-19T01:42:12.275Z,976.37
2018-02-19T01:42:22.369Z,976.37
2018-02-19T01:42:32.448Z,976.37
2018-02-19T01:42:42.549Z,976.35
2018-02-19T01:42:52.630Z,976.35
2018-02-19T01:43:02.700Z,976.37
2018-02-19T01:43:12.767Z,976.37
2018-02-19T01:43:22.857Z,976.35
2018-02-19T01:43:32.931Z,976.35
2018-02-19T01:43:43.040Z,976.35
2018-02-19T01:43:53.114Z,976.35
2018-02-19T01:44:03.198Z,976.35
2018-02-19T01:44:13.296Z,976.33
2018-02-19T01:44:23.333Z,976.33
2018-02-19T01:44:33.426Z,976.33
2018-02-19T01:44:43.538Z,976.33
2018-02-19T01:44:53.610Z,976.35
2018-02-19T01:45:03.702Z,976.33
2018-02-19T01:45:13.797Z,976.33
2018-02-19T01:45:23.859Z,976.33
2018-02-19T01:45:33.953Z,976.31
2018-02-19T01:45:44.001Z,976.31
2018-02-19T01:45:54.096Z,976.31
2018-02-19T01:46:04.203Z,976.31
2018-02-19T01:46:14.276Z,976.31
2018-02-19T01:46:24.375Z,976.29
2018-02-19T01:46:34.459Z,976.29
2018-02-19T01:46:44.494Z,976.27
2018-02-19T01:46:54.585Z,976.31
2018-02-19T01:47:04.669Z,976.31
2018-02-19T01:47:14.752Z,976.29
2018-02-19T01:47:24.850Z,976.27
2018-02-19T01:47:34.938Z,976.29
2018-02-19T01:47:45.007Z,976.27
2018-02-19T01:47:55.111Z,976.27
2018-02-19T01:48:05.190Z,976.27
2018-02-19T01:48:15.279Z,976.27
2018-02-19T01:48:25.357Z,976.25
2018-02-19T01:48:35.418Z,976.27
2018-02-19T01:48:45.498Z,976.25
2018-02-19T01:48:55.598Z,976.25
2018-02-19T01:49:05.694Z,976.25
2018-02-19T01:49:15.781Z,976.25
2018-02-19T01:49:25.858Z,976.25
2018-02-19T01:49:35.913Z,976.25
2018-02-19T01:49:46.052Z,976.23
2018-02-19T01:49:56.099Z,976.25
2018-02-19T01:50:06.205Z,976.23
2018-02-19T01:50:16.286Z,976.25
2018-02-19T01:50:26.373Z,976.23
2018-02-19T01:50:36.439Z,976.23
2018-02-19T01:50:46.522Z,976.23
2018-02-19T01:50:56.628Z,976.23
2018-02-19T01:51:06.730Z,976.23
2018-02-19T01:51:16.813Z,976.23
2018-02-19T01:51:26.740Z,976.23
2018-02-19T01:51:36.978Z,976.23
2018-02-19T01:51:47.058Z,976.23
2018-02-19T01:51:57.151Z,976.21
2018-02-19T01:52:07.204Z,976.19
2018-02-19T01:52:17.294Z,976.19
2018-02-19T01:52:27.400Z,976.21
2018-02-19T01:52:37.482Z,976.21
2018-02-19T01:52:47.561Z,976.21
2018-02-19T01:52:57.648Z,976.19
2018-02-19T01:53:07.717Z,976.17
2018-02-19T01:53:17.818Z,976.19
2018-02-19T01:53:27.866Z,976.19
2018-02-19T01:53:37.952Z,976.19
2018-02-19T01:53:48.059Z,976.19
2018-02-19T01:53:58.139Z,976.19
2018-02-19T01:54:08.218Z,976.17
2018-02-19T01:54:18.317Z,976.17
2018-02-19T01:54:28.383Z,976.15
2018-02-19T01:54:38.484Z,976.17
2018-02-19T01:54:48.568Z,976.17
2018-02-19T01:54:58.619Z,976.13
2018-02-19T01:55:08.703Z,976.15
2018-02-19T01:55:18.797Z,976.13
2018-02-19T01:55:28.867Z,976.13
2018-02-19T01:55:38.972Z,976.11
2018-02-19T01:55:49.047Z,976.13
2018-02-19T01:55:59.149Z,976.11
2018-02-19T01:56:09.249Z,976.11
2018-02-19T01:56:19.285Z,976.11
2018-02-19T01:56:29.378Z,976.11
2018-02-19T01:56:39.471Z,976.11
2018-02-19T01:56:49.564Z,976.09
2018-02-19T01:56:59.644Z,976.11
2018-02-19T01:57:09.581Z,976.09
2018-02-19T01:57:19.817Z,976.09
2018-02-19T01:57:29.913Z,976.09
2018-02-19T01:57:39.971Z,976.09
2018-02-19T01:57:50.058Z,976.09
2018-02-19T01:58:00.166Z,976.07
2018-02-19T01:58:10.243Z,976.07
2018-02-19T01:58:20.172Z,976.09
2018-02-19T01:58:30.420Z,976.05
2018-02-19T01:58:40.505Z,976.05
2018-02-19T01:58:50.552Z,976.05
2018-02-19T01:59:00.650Z,976.05
2018-02-19T01:59:10.742Z,976.03
2018-02-19T01:59:20.833Z,976.05
2018-02-19T01:59:30.921Z,976.05
2018-02-19T01:59:41.006Z,976.03
2018-02-19T01:59:51.117Z,976.03
2018-02-19T02:00:01.149Z,976.01
2018-02-19T02:00:11.226Z,976.03
2018-02-19T02:00:21.328Z,975.99
2018-02-19T02:00:31.416Z,975.99
2018-02-19T02:00:41.485Z,975.99
2018-02-19T02:00:51.590Z,975.99
2018-02-19T02:01:01.629Z,975.99
2018-02-19T02:01:11.769Z,975.97
2018-02-19T02:01:21.812Z,975.97
2018-02-19T02:01:31.896Z,975.95
2018-02-19T02:01:41.991Z,975.97
2018-02-19T02:01:52.087Z,975.97
2018-02-19T02:02:02.191Z,975.95
2018-02-19T02:02:12.280Z,975.97
2018-02-19T02:02:22.367Z,975.95
2018-02-19T02:02:32.470Z,975.95
2018-02-19T02:02:42.543Z,975.93
2018-02-19T02:02:52.615Z,975.95
2018-02-19T02:03:02.702Z,975.95
2018-02-19T02:03:12.759Z,975.95
2018-02-19T02:03:22.843Z,975.93
2018-02-19T02:03:32.953Z,975.95
2018-02-19T02:03:43.045Z,975.95
2018-02-19T02:03:53.118Z,975.93
2018-02-19T02:04:03.213Z,975.95
2018-02-19T02:04:13.261Z,975.93
2018-02-19T02:04:23.347Z,975.95
2018-02-19T02:04:33.449Z,975.93
2018-02-19T02:04:43.543Z,975.93
2018-02-19T02:04:53.525Z,975.93
2018-02-19T02:05:03.712Z,975.93
2018-02-19T02:05:13.795Z,975.93
2018-02-19T02:05:23.876Z,975.91
2018-02-19T02:05:33.984Z,975.93
2018-02-19T02:05:44.036Z,975.91
2018-02-19T02:05:54.135Z,975.91
2018-02-19T02:06:04.224Z,975.91
2018-02-19T02:06:14.293Z,975.91
2018-02-19T02:06:24.390Z,975.91
2018-02-19T02:06:34.464Z,975.91